sensor_id;sensor_type;location;lat;lon;timestamp;temperature;humidity
27188;DHT22;14708;50.872;5.306;2023-07-20T00:01:45;25.20;49.10
27188;DHT22;14708;50.872;5.306;2023-07-20T00:04:11;25.20;49.80
27188;DHT22;14708;50.872;5.306;2023-07-20T00:06:37;25.20;49.10
27188;DHT22;14708;50.872;5.306;2023-07-20T00:09:06;25.20;49.30
27188;DHT22;14708;50.872;5.306;2023-07-20T00:11:32;25.20;49.30
27188;DHT22;14708;50.872;5.306;2023-07-20T00:14:00;25.20;49.20
27188;DHT22;14708;50.872;5.306;2023-07-20T00:16:26;25.10;49.30
27188;DHT22;14708;50.872;5.306;2023-07-20T00:18:51;25.20;49.40
27188;DHT22;14708;50.872;5.306;2023-07-20T00:21:17;25.20;49.60
27188;DHT22;14708;50.872;5.306;2023-07-20T00:23:43;25.10;49.30
27188;DHT22;14708;50.872;5.306;2023-07-20T00:26:08;25.10;49.30
27188;DHT22;14708;50.872;5.306;2023-07-20T00:28:34;25.10;49.30
27188;DHT22;14708;50.872;5.306;2023-07-20T00:31:00;25.10;49.40
27188;DHT22;14708;50.872;5.306;2023-07-20T00:33:26;25.10;49.40
27188;DHT22;14708;50.872;5.306;2023-07-20T00:35:52;25.10;49.40
27188;DHT22;14708;50.872;5.306;2023-07-20T00:38:18;25.10;49.60
27188;DHT22;14708;50.872;5.306;2023-07-20T00:40:43;25.10;49.40
27188;DHT22;14708;50.872;5.306;2023-07-20T00:43:09;25.10;49.50
27188;DHT22;14708;50.872;5.306;2023-07-20T00:45:36;25.10;49.30
27188;DHT22;14708;50.872;5.306;2023-07-20T00:48:04;25.10;49.30
27188;DHT22;14708;50.872;5.306;2023-07-20T00:50:32;25.10;49.70
27188;DHT22;14708;50.872;5.306;2023-07-20T00:52:58;25.10;49.90
27188;DHT22;14708;50.872;5.306;2023-07-20T00:55:25;25.00;49.40
27188;DHT22;14708;50.872;5.306;2023-07-20T00:57:52;25.00;49.50
27188;DHT22;14708;50.872;5.306;2023-07-20T01:00:17;25.00;49.00
27188;DHT22;14708;50.872;5.306;2023-07-20T01:02:44;25.00;49.10
27188;DHT22;14708;50.872;5.306;2023-07-20T01:05:10;25.00;49.50
27188;DHT22;14708;50.872;5.306;2023-07-20T01:07:54;25.00;49.40
27188;DHT22;14708;50.872;5.306;2023-07-20T01:13:06;25.00;49.60
27188;DHT22;14708;50.872;5.306;2023-07-20T01:15:34;25.00;49.30
27188;DHT22;14708;50.872;5.306;2023-07-20T01:17:59;25.00;49.30
27188;DHT22;14708;50.872;5.306;2023-07-20T01:20:28;25.00;49.40
27188;DHT22;14708;50.872;5.306;2023-07-20T01:31:34;25.00;49.20
27188;DHT22;14708;50.872;5.306;2023-07-20T01:34:02;25.00;49.50
27188;DHT22;14708;50.872;5.306;2023-07-20T01:36:32;25.00;49.20
27188;DHT22;14708;50.872;5.306;2023-07-20T01:38:59;25.00;49.30
27188;DHT22;14708;50.872;5.306;2023-07-20T01:41:24;25.00;49.20
27188;DHT22;14708;50.872;5.306;2023-07-20T01:43:50;25.00;49.30
27188;DHT22;14708;50.872;5.306;2023-07-20T01:46:16;25.00;49.50
27188;DHT22;14708;50.872;5.306;2023-07-20T01:48:42;24.90;49.30
27188;DHT22;14708;50.872;5.306;2023-07-20T01:51:08;24.90;49.20
27188;DHT22;14708;50.872;5.306;2023-07-20T01:53:33;24.90;49.30
27188;DHT22;14708;50.872;5.306;2023-07-20T01:55:59;25.00;49.30
27188;DHT22;14708;50.872;5.306;2023-07-20T01:58:25;24.90;49.30
27188;DHT22;14708;50.872;5.306;2023-07-20T02:00:50;25.00;49.70
27188;DHT22;14708;50.872;5.306;2023-07-20T02:03:16;24.90;49.30
27188;DHT22;14708;50.872;5.306;2023-07-20T02:05:44;25.00;49.30
27188;DHT22;14708;50.872;5.306;2023-07-20T02:08:10;24.90;49.30
27188;DHT22;14708;50.872;5.306;2023-07-20T02:10:36;24.90;49.30
27188;DHT22;14708;50.872;5.306;2023-07-20T02:13:02;24.90;49.80
27188;DHT22;14708;50.872;5.306;2023-07-20T02:15:27;24.90;49.60
27188;DHT22;14708;50.872;5.306;2023-07-20T02:17:54;24.90;49.50
27188;DHT22;14708;50.872;5.306;2023-07-20T02:20:20;24.90;49.40
27188;DHT22;14708;50.872;5.306;2023-07-20T02:22:46;24.90;49.90
27188;DHT22;14708;50.872;5.306;2023-07-20T02:25:11;24.90;49.50
27188;DHT22;14708;50.872;5.306;2023-07-20T02:27:37;24.90;49.90
27188;DHT22;14708;50.872;5.306;2023-07-20T02:30:04;24.90;49.90
27188;DHT22;14708;50.872;5.306;2023-07-20T02:32:30;24.90;50.20
27188;DHT22;14708;50.872;5.306;2023-07-20T02:34:57;24.90;50.30
27188;DHT22;14708;50.872;5.306;2023-07-20T02:37:23;24.90;50.20
27188;DHT22;14708;50.872;5.306;2023-07-20T02:39:48;24.90;50.20
27188;DHT22;14708;50.872;5.306;2023-07-20T02:42:14;24.90;49.90
27188;DHT22;14708;50.872;5.306;2023-07-20T02:44:40;24.90;49.80
27188;DHT22;14708;50.872;5.306;2023-07-20T02:47:06;24.80;50.10
27188;DHT22;14708;50.872;5.306;2023-07-20T02:49:31;24.90;50.00
27188;DHT22;14708;50.872;5.306;2023-07-20T02:51:57;24.80;49.90
27188;DHT22;14708;50.872;5.306;2023-07-20T02:54:22;24.80;50.00
27188;DHT22;14708;50.872;5.306;2023-07-20T02:56:48;24.80;50.70
27188;DHT22;14708;50.872;5.306;2023-07-20T02:59:14;24.80;49.80
27188;DHT22;14708;50.872;5.306;2023-07-20T03:01:39;24.80;50.20
27188;DHT22;14708;50.872;5.306;2023-07-20T03:04:07;24.80;50.00
27188;DHT22;14708;50.872;5.306;2023-07-20T03:06:35;24.80;50.30
27188;DHT22;14708;50.872;5.306;2023-07-20T03:09:01;24.80;50.10
27188;DHT22;14708;50.872;5.306;2023-07-20T03:11:28;24.80;50.30
27188;DHT22;14708;50.872;5.306;2023-07-20T03:13:54;24.80;50.50
27188;DHT22;14708;50.872;5.306;2023-07-20T03:16:21;24.80;49.90
27188;DHT22;14708;50.872;5.306;2023-07-20T03:18:47;24.80;50.00
27188;DHT22;14708;50.872;5.306;2023-07-20T03:21:13;24.80;50.30
27188;DHT22;14708;50.872;5.306;2023-07-20T03:23:41;24.80;50.30
27188;DHT22;14708;50.872;5.306;2023-07-20T03:26:07;24.80;50.50
27188;DHT22;14708;50.872;5.306;2023-07-20T03:28:37;24.80;50.40
27188;DHT22;14708;50.872;5.306;2023-07-20T03:31:03;24.80;50.50
27188;DHT22;14708;50.872;5.306;2023-07-20T03:33:30;24.80;50.30
27188;DHT22;14708;50.872;5.306;2023-07-20T03:35:56;24.80;49.90
27188;DHT22;14708;50.872;5.306;2023-07-20T03:38:23;24.80;50.30
27188;DHT22;14708;50.872;5.306;2023-07-20T03:40:56;24.80;50.00
27188;DHT22;14708;50.872;5.306;2023-07-20T03:43:27;24.80;50.50
27188;DHT22;14708;50.872;5.306;2023-07-20T03:45:53;24.80;50.40
27188;DHT22;14708;50.872;5.306;2023-07-20T03:48:21;24.80;50.40
27188;DHT22;14708;50.872;5.306;2023-07-20T03:50:48;24.80;50.40
27188;DHT22;14708;50.872;5.306;2023-07-20T03:53:15;24.70;50.50
27188;DHT22;14708;50.872;5.306;2023-07-20T03:55:46;24.70;50.50
27188;DHT22;14708;50.872;5.306;2023-07-20T03:58:13;24.80;50.40
27188;DHT22;14708;50.872;5.306;2023-07-20T04:00:38;24.80;50.50
27188;DHT22;14708;50.872;5.306;2023-07-20T04:03:05;24.80;50.70
27188;DHT22;14708;50.872;5.306;2023-07-20T04:05:30;24.70;50.50
27188;DHT22;14708;50.872;5.306;2023-07-20T04:07:56;24.70;50.70
27188;DHT22;14708;50.872;5.306;2023-07-20T04:10:21;24.70;50.50
27188;DHT22;14708;50.872;5.306;2023-07-20T04:12:47;24.80;50.60
27188;DHT22;14708;50.872;5.306;2023-07-20T04:15:13;24.80;50.30
27188;DHT22;14708;50.872;5.306;2023-07-20T04:17:40;24.70;50.30
27188;DHT22;14708;50.872;5.306;2023-07-20T04:20:07;24.80;50.30
27188;DHT22;14708;50.872;5.306;2023-07-20T04:22:33;24.70;50.20
27188;DHT22;14708;50.872;5.306;2023-07-20T04:24:58;24.70;50.30
27188;DHT22;14708;50.872;5.306;2023-07-20T04:27:24;24.70;50.40
27188;DHT22;14708;50.872;5.306;2023-07-20T04:29:49;24.70;50.30
27188;DHT22;14708;50.872;5.306;2023-07-20T04:32:15;24.70;50.20
27188;DHT22;14708;50.872;5.306;2023-07-20T04:34:41;24.70;49.90
27188;DHT22;14708;50.872;5.306;2023-07-20T04:37:07;24.70;50.20
27188;DHT22;14708;50.872;5.306;2023-07-20T04:39:33;24.70;49.90
27188;DHT22;14708;50.872;5.306;2023-07-20T04:41:59;24.70;50.20
27188;DHT22;14708;50.872;5.306;2023-07-20T04:44:24;24.70;50.30
27188;DHT22;14708;50.872;5.306;2023-07-20T04:46:50;24.70;50.30
27188;DHT22;14708;50.872;5.306;2023-07-20T04:49:16;24.70;50.40
27188;DHT22;14708;50.872;5.306;2023-07-20T04:51:41;24.70;50.40
27188;DHT22;14708;50.872;5.306;2023-07-20T04:54:07;24.70;50.00
27188;DHT22;14708;50.872;5.306;2023-07-20T04:56:33;24.70;50.50
27188;DHT22;14708;50.872;5.306;2023-07-20T04:58:59;24.70;50.30
27188;DHT22;14708;50.872;5.306;2023-07-20T05:01:24;24.70;50.40
27188;DHT22;14708;50.872;5.306;2023-07-20T05:03:52;24.70;50.20
27188;DHT22;14708;50.872;5.306;2023-07-20T05:06:17;24.70;50.30
27188;DHT22;14708;50.872;5.306;2023-07-20T05:08:43;24.70;50.50
27188;DHT22;14708;50.872;5.306;2023-07-20T05:11:09;24.70;50.20
27188;DHT22;14708;50.872;5.306;2023-07-20T05:13:35;24.60;50.40
27188;DHT22;14708;50.872;5.306;2023-07-20T05:16:01;24.70;50.50
27188;DHT22;14708;50.872;5.306;2023-07-20T05:18:27;24.70;50.40
27188;DHT22;14708;50.872;5.306;2023-07-20T05:20:52;24.70;50.40
27188;DHT22;14708;50.872;5.306;2023-07-20T05:23:20;24.70;50.40
27188;DHT22;14708;50.872;5.306;2023-07-20T05:25:47;24.70;50.50
27188;DHT22;14708;50.872;5.306;2023-07-20T05:28:12;24.70;50.60
27188;DHT22;14708;50.872;5.306;2023-07-20T05:30:38;24.70;50.50
27188;DHT22;14708;50.872;5.306;2023-07-20T05:33:03;24.70;50.40
27188;DHT22;14708;50.872;5.306;2023-07-20T05:35:29;24.70;50.10
27188;DHT22;14708;50.872;5.306;2023-07-20T05:37:55;24.70;50.00
27188;DHT22;14708;50.872;5.306;2023-07-20T05:40:20;24.70;50.00
27188;DHT22;14708;50.872;5.306;2023-07-20T05:42:47;24.70;50.20
27188;DHT22;14708;50.872;5.306;2023-07-20T05:45:14;24.70;49.90
27188;DHT22;14708;50.872;5.306;2023-07-20T05:47:41;24.70;49.80
27188;DHT22;14708;50.872;5.306;2023-07-20T05:50:07;24.70;50.20
27188;DHT22;14708;50.872;5.306;2023-07-20T05:52:33;24.80;50.00
27188;DHT22;14708;50.872;5.306;2023-07-20T05:54:59;24.70;50.30
27188;DHT22;14708;50.872;5.306;2023-07-20T05:57:24;24.60;50.80
27188;DHT22;14708;50.872;5.306;2023-07-20T05:59:50;24.70;50.90
27188;DHT22;14708;50.872;5.306;2023-07-20T06:02:16;24.70;51.20
27188;DHT22;14708;50.872;5.306;2023-07-20T06:04:42;24.70;51.10
27188;DHT22;14708;50.872;5.306;2023-07-20T06:07:07;24.60;51.50
27188;DHT22;14708;50.872;5.306;2023-07-20T06:09:33;24.70;51.80
27188;DHT22;14708;50.872;5.306;2023-07-20T06:11:59;24.70;51.80
27188;DHT22;14708;50.872;5.306;2023-07-20T06:14:25;24.60;52.00
27188;DHT22;14708;50.872;5.306;2023-07-20T06:16:51;24.70;52.10
27188;DHT22;14708;50.872;5.306;2023-07-20T06:19:16;24.70;53.20
27188;DHT22;14708;50.872;5.306;2023-07-20T06:21:44;24.70;53.00
27188;DHT22;14708;50.872;5.306;2023-07-20T06:24:10;24.70;53.30
27188;DHT22;14708;50.872;5.306;2023-07-20T06:26:35;24.70;53.70
27188;DHT22;14708;50.872;5.306;2023-07-20T06:31:50;24.70;53.40
27188;DHT22;14708;50.872;5.306;2023-07-20T06:34:15;24.60;53.80
27188;DHT22;14708;50.872;5.306;2023-07-20T06:36:41;24.70;54.10
27188;DHT22;14708;50.872;5.306;2023-07-20T06:39:06;24.70;53.80
27188;DHT22;14708;50.872;5.306;2023-07-20T06:41:32;24.60;54.00
27188;DHT22;14708;50.872;5.306;2023-07-20T06:43:58;24.60;53.80
27188;DHT22;14708;50.872;5.306;2023-07-20T06:46:26;24.60;53.90
27188;DHT22;14708;50.872;5.306;2023-07-20T06:48:52;24.60;54.40
27188;DHT22;14708;50.872;5.306;2023-07-20T06:51:19;24.50;54.40
27188;DHT22;14708;50.872;5.306;2023-07-20T06:53:44;24.50;54.60
27188;DHT22;14708;50.872;5.306;2023-07-20T06:56:10;24.60;54.40
27188;DHT22;14708;50.872;5.306;2023-07-20T06:58:36;24.60;54.40
27188;DHT22;14708;50.872;5.306;2023-07-20T07:01:08;24.50;54.10
27188;DHT22;14708;50.872;5.306;2023-07-20T07:03:34;24.50;53.90
27188;DHT22;14708;50.872;5.306;2023-07-20T07:06:00;24.50;54.20
27188;DHT22;14708;50.872;5.306;2023-07-20T07:08:28;24.50;54.10
27188;DHT22;14708;50.872;5.306;2023-07-20T07:10:54;24.50;53.90
27188;DHT22;14708;50.872;5.306;2023-07-20T07:13:19;24.50;54.30
27188;DHT22;14708;50.872;5.306;2023-07-20T07:15:45;24.50;54.20
27188;DHT22;14708;50.872;5.306;2023-07-20T07:18:11;24.50;54.10
27188;DHT22;14708;50.872;5.306;2023-07-20T07:20:37;24.50;54.70
27188;DHT22;14708;50.872;5.306;2023-07-20T07:23:03;24.60;54.60
27188;DHT22;14708;50.872;5.306;2023-07-20T07:25:29;24.50;54.20
27188;DHT22;14708;50.872;5.306;2023-07-20T07:27:55;24.50;54.20
27188;DHT22;14708;50.872;5.306;2023-07-20T07:30:21;24.50;54.10
27188;DHT22;14708;50.872;5.306;2023-07-20T07:32:47;24.50;54.40
27188;DHT22;14708;50.872;5.306;2023-07-20T07:35:13;24.50;54.10
27188;DHT22;14708;50.872;5.306;2023-07-20T07:37:39;24.60;54.30
27188;DHT22;14708;50.872;5.306;2023-07-20T07:40:05;24.50;54.20
27188;DHT22;14708;50.872;5.306;2023-07-20T07:42:31;24.50;54.20
27188;DHT22;14708;50.872;5.306;2023-07-20T07:44:57;24.50;54.00
27188;DHT22;14708;50.872;5.306;2023-07-20T07:47:22;24.50;54.00
27188;DHT22;14708;50.872;5.306;2023-07-20T07:49:50;24.50;54.10
27188;DHT22;14708;50.872;5.306;2023-07-20T07:52:15;24.50;54.20
27188;DHT22;14708;50.872;5.306;2023-07-20T07:54:41;24.50;54.20
27188;DHT22;14708;50.872;5.306;2023-07-20T07:57:06;24.50;53.90
27188;DHT22;14708;50.872;5.306;2023-07-20T07:59:32;24.50;53.70
27188;DHT22;14708;50.872;5.306;2023-07-20T08:02:05;24.60;53.70
27188;DHT22;14708;50.872;5.306;2023-07-20T08:04:31;24.60;53.70
27188;DHT22;14708;50.872;5.306;2023-07-20T08:06:57;24.60;53.40
27188;DHT22;14708;50.872;5.306;2023-07-20T08:09:23;24.60;53.60
27188;DHT22;14708;50.872;5.306;2023-07-20T08:11:48;24.60;53.50
27188;DHT22;14708;50.872;5.306;2023-07-20T08:14:15;24.60;54.00
27188;DHT22;14708;50.872;5.306;2023-07-20T08:16:41;24.60;53.80
27188;DHT22;14708;50.872;5.306;2023-07-20T08:19:06;24.60;53.40
27188;DHT22;14708;50.872;5.306;2023-07-20T08:21:32;24.60;53.70
27188;DHT22;14708;50.872;5.306;2023-07-20T08:23:58;24.60;53.80
27188;DHT22;14708;50.872;5.306;2023-07-20T08:26:24;24.60;53.90
27188;DHT22;14708;50.872;5.306;2023-07-20T08:28:49;24.60;53.60
27188;DHT22;14708;50.872;5.306;2023-07-20T08:31:15;24.60;53.80
27188;DHT22;14708;50.872;5.306;2023-07-20T08:33:41;24.60;53.50
27188;DHT22;14708;50.872;5.306;2023-07-20T08:36:06;24.60;53.60
27188;DHT22;14708;50.872;5.306;2023-07-20T08:38:33;24.60;53.50
27188;DHT22;14708;50.872;5.306;2023-07-20T08:40:58;24.60;53.60
27188;DHT22;14708;50.872;5.306;2023-07-20T08:43:27;24.60;53.80
27188;DHT22;14708;50.872;5.306;2023-07-20T08:45:57;24.50;53.90
27188;DHT22;14708;50.872;5.306;2023-07-20T08:48:22;24.50;54.20
27188;DHT22;14708;50.872;5.306;2023-07-20T08:50:52;24.60;53.80
27188;DHT22;14708;50.872;5.306;2023-07-20T08:53:22;24.60;53.40
27188;DHT22;14708;50.872;5.306;2023-07-20T08:55:50;24.60;53.40
27188;DHT22;14708;50.872;5.306;2023-07-20T08:58:17;24.60;53.00
27188;DHT22;14708;50.872;5.306;2023-07-20T09:00:43;24.70;53.20
27188;DHT22;14708;50.872;5.306;2023-07-20T09:03:10;24.70;52.60
27188;DHT22;14708;50.872;5.306;2023-07-20T09:05:36;24.70;52.70
27188;DHT22;14708;50.872;5.306;2023-07-20T09:08:02;24.70;52.90
27188;DHT22;14708;50.872;5.306;2023-07-20T09:10:30;24.70;52.60
27188;DHT22;14708;50.872;5.306;2023-07-20T09:12:56;24.80;52.40
27188;DHT22;14708;50.872;5.306;2023-07-20T09:15:22;24.80;51.80
27188;DHT22;14708;50.872;5.306;2023-07-20T09:17:49;24.80;51.10
27188;DHT22;14708;50.872;5.306;2023-07-20T09:20:18;24.70;51.50
27188;DHT22;14708;50.872;5.306;2023-07-20T09:22:44;24.70;51.80
27188;DHT22;14708;50.872;5.306;2023-07-20T09:25:15;24.80;52.10
27188;DHT22;14708;50.872;5.306;2023-07-20T09:27:44;24.70;51.80
27188;DHT22;14708;50.872;5.306;2023-07-20T09:30:10;24.70;51.80
27188;DHT22;14708;50.872;5.306;2023-07-20T09:32:48;24.70;50.70
27188;DHT22;14708;50.872;5.306;2023-07-20T09:35:17;24.80;50.40
27188;DHT22;14708;50.872;5.306;2023-07-20T09:38:01;24.70;50.50
27188;DHT22;14708;50.872;5.306;2023-07-20T09:40:28;24.70;51.10
27188;DHT22;14708;50.872;5.306;2023-07-20T09:42:54;24.70;50.90
27188;DHT22;14708;50.872;5.306;2023-07-20T09:45:57;24.70;50.30
27188;DHT22;14708;50.872;5.306;2023-07-20T09:48:24;24.70;50.40
27188;DHT22;14708;50.872;5.306;2023-07-20T09:50:52;24.70;49.90
27188;DHT22;14708;50.872;5.306;2023-07-20T09:53:18;24.70;50.10
27188;DHT22;14708;50.872;5.306;2023-07-20T09:55:45;24.80;50.30
27188;DHT22;14708;50.872;5.306;2023-07-20T09:58:12;24.80;50.00
27188;DHT22;14708;50.872;5.306;2023-07-20T10:00:39;24.80;50.50
27188;DHT22;14708;50.872;5.306;2023-07-20T10:03:05;24.80;50.70
27188;DHT22;14708;50.872;5.306;2023-07-20T10:05:36;24.70;50.50
27188;DHT22;14708;50.872;5.306;2023-07-20T10:08:04;24.70;50.60
27188;DHT22;14708;50.872;5.306;2023-07-20T10:10:35;24.70;50.30
27188;DHT22;14708;50.872;5.306;2023-07-20T10:13:01;24.70;51.00
27188;DHT22;14708;50.872;5.306;2023-07-20T10:15:33;24.70;50.10
27188;DHT22;14708;50.872;5.306;2023-07-20T10:18:37;24.70;50.40
27188;DHT22;14708;50.872;5.306;2023-07-20T10:20:54;24.70;49.90
27188;DHT22;14708;50.872;5.306;2023-07-20T10:23:21;24.70;49.90
27188;DHT22;14708;50.872;5.306;2023-07-20T10:25:47;24.80;49.90
27188;DHT22;14708;50.872;5.306;2023-07-20T10:28:14;24.80;50.10
27188;DHT22;14708;50.872;5.306;2023-07-20T10:30:40;24.80;50.10
27188;DHT22;14708;50.872;5.306;2023-07-20T10:33:12;24.80;50.10
27188;DHT22;14708;50.872;5.306;2023-07-20T10:35:55;24.80;50.10
27188;DHT22;14708;50.872;5.306;2023-07-20T10:41:21;24.80;49.70
27188;DHT22;14708;50.872;5.306;2023-07-20T10:43:57;24.70;49.10
27188;DHT22;14708;50.872;5.306;2023-07-20T10:49:10;24.80;49.40
27188;DHT22;14708;50.872;5.306;2023-07-20T10:51:47;24.80;49.10
27188;DHT22;14708;50.872;5.306;2023-07-20T10:56:46;24.90;47.40
27188;DHT22;14708;50.872;5.306;2023-07-20T11:02:08;24.90;46.80
27188;DHT22;14708;50.872;5.306;2023-07-20T11:04:43;24.90;47.10
27188;DHT22;14708;50.872;5.306;2023-07-20T11:07:09;24.90;47.10
27188;DHT22;14708;50.872;5.306;2023-07-20T11:09:39;24.80;46.70
27188;DHT22;14708;50.872;5.306;2023-07-20T11:12:18;24.90;46.00
27188;DHT22;14708;50.872;5.306;2023-07-20T11:17:18;24.80;45.70
27188;DHT22;14708;50.872;5.306;2023-07-20T11:19:48;24.80;46.10
27188;DHT22;14708;50.872;5.306;2023-07-20T11:22:16;24.80;46.30
27188;DHT22;14708;50.872;5.306;2023-07-20T11:24:43;24.80;45.90
27188;DHT22;14708;50.872;5.306;2023-07-20T11:27:08;24.80;45.70
27188;DHT22;14708;50.872;5.306;2023-07-20T11:29:39;24.80;46.20
27188;DHT22;14708;50.872;5.306;2023-07-20T11:32:08;24.80;45.40
27188;DHT22;14708;50.872;5.306;2023-07-20T11:37:50;24.80;45.30
27188;DHT22;14708;50.872;5.306;2023-07-20T11:40:18;24.80;45.30
27188;DHT22;14708;50.872;5.306;2023-07-20T11:42:44;24.80;45.30
27188;DHT22;14708;50.872;5.306;2023-07-20T11:45:24;24.80;44.70
27188;DHT22;14708;50.872;5.306;2023-07-20T11:47:50;24.90;44.60
27188;DHT22;14708;50.872;5.306;2023-07-20T11:50:16;24.80;44.80
27188;DHT22;14708;50.872;5.306;2023-07-20T11:52:47;24.80;44.70
27188;DHT22;14708;50.872;5.306;2023-07-20T11:55:12;24.80;45.10
27188;DHT22;14708;50.872;5.306;2023-07-20T11:57:38;24.90;45.30
27188;DHT22;14708;50.872;5.306;2023-07-20T12:00:04;24.90;45.10
27188;DHT22;14708;50.872;5.306;2023-07-20T12:02:38;24.90;44.60
27188;DHT22;14708;50.872;5.306;2023-07-20T12:05:07;24.90;45.10
27188;DHT22;14708;50.872;5.306;2023-07-20T12:07:36;24.90;45.40
27188;DHT22;14708;50.872;5.306;2023-07-20T12:10:11;24.90;44.80
27188;DHT22;14708;50.872;5.306;2023-07-20T12:12:42;24.90;45.30
27188;DHT22;14708;50.872;5.306;2023-07-20T12:15:19;24.90;45.40
27188;DHT22;14708;50.872;5.306;2023-07-20T12:17:45;24.90;44.80
27188;DHT22;14708;50.872;5.306;2023-07-20T12:20:24;25.00;45.20
27188;DHT22;14708;50.872;5.306;2023-07-20T12:22:49;25.00;45.60
27188;DHT22;14708;50.872;5.306;2023-07-20T12:25:17;25.10;45.10
27188;DHT22;14708;50.872;5.306;2023-07-20T12:27:47;25.10;45.30
27188;DHT22;14708;50.872;5.306;2023-07-20T12:30:13;25.10;44.90
27188;DHT22;14708;50.872;5.306;2023-07-20T12:32:45;25.10;45.30
27188;DHT22;14708;50.872;5.306;2023-07-20T12:35:10;25.20;45.50
27188;DHT22;14708;50.872;5.306;2023-07-20T12:37:37;25.10;45.00
27188;DHT22;14708;50.872;5.306;2023-07-20T12:40:02;25.20;44.20
27188;DHT22;14708;50.872;5.306;2023-07-20T12:42:29;25.20;44.30
27188;DHT22;14708;50.872;5.306;2023-07-20T12:44:54;25.20;43.90
27188;DHT22;14708;50.872;5.306;2023-07-20T12:47:20;25.20;43.70
27188;DHT22;14708;50.872;5.306;2023-07-20T12:49:45;25.10;43.20
27188;DHT22;14708;50.872;5.306;2023-07-20T12:52:12;25.10;44.40
27188;DHT22;14708;50.872;5.306;2023-07-20T12:54:37;25.10;44.20
27188;DHT22;14708;50.872;5.306;2023-07-20T12:57:03;25.10;44.60
27188;DHT22;14708;50.872;5.306;2023-07-20T12:59:29;25.20;44.70
27188;DHT22;14708;50.872;5.306;2023-07-20T13:02:01;25.20;44.60
27188;DHT22;14708;50.872;5.306;2023-07-20T13:04:27;25.10;44.30
27188;DHT22;14708;50.872;5.306;2023-07-20T13:06:52;25.20;44.40
27188;DHT22;14708;50.872;5.306;2023-07-20T13:09:18;25.20;44.70
27188;DHT22;14708;50.872;5.306;2023-07-20T13:11:46;25.20;45.10
27188;DHT22;14708;50.872;5.306;2023-07-20T13:14:11;25.20;44.70
27188;DHT22;14708;50.872;5.306;2023-07-20T13:16:37;25.20;44.70
27188;DHT22;14708;50.872;5.306;2023-07-20T13:19:03;25.20;44.30
27188;DHT22;14708;50.872;5.306;2023-07-20T13:21:28;25.20;44.20
27188;DHT22;14708;50.872;5.306;2023-07-20T13:23:54;25.10;44.30
27188;DHT22;14708;50.872;5.306;2023-07-20T13:26:20;25.10;43.70
27188;DHT22;14708;50.872;5.306;2023-07-20T13:28:46;25.10;45.10
27188;DHT22;14708;50.872;5.306;2023-07-20T13:31:11;25.10;43.70
27188;DHT22;14708;50.872;5.306;2023-07-20T13:33:37;25.10;43.70
27188;DHT22;14708;50.872;5.306;2023-07-20T13:36:04;25.10;44.30
27188;DHT22;14708;50.872;5.306;2023-07-20T13:38:31;25.10;43.20
27188;DHT22;14708;50.872;5.306;2023-07-20T13:41:00;25.10;42.80
27188;DHT22;14708;50.872;5.306;2023-07-20T13:43:25;25.10;43.20
27188;DHT22;14708;50.872;5.306;2023-07-20T13:45:51;25.10;43.20
27188;DHT22;14708;50.872;5.306;2023-07-20T13:48:17;25.10;43.30
27188;DHT22;14708;50.872;5.306;2023-07-20T13:50:45;25.20;43.20
27188;DHT22;14708;50.872;5.306;2023-07-20T13:53:11;25.20;42.70
27188;DHT22;14708;50.872;5.306;2023-07-20T13:55:37;25.20;43.50
27188;DHT22;14708;50.872;5.306;2023-07-20T13:58:03;25.20;43.80
27188;DHT22;14708;50.872;5.306;2023-07-20T14:00:30;25.20;43.90
27188;DHT22;14708;50.872;5.306;2023-07-20T14:02:58;25.20;44.00
27188;DHT22;14708;50.872;5.306;2023-07-20T14:05:24;25.20;44.10
27188;DHT22;14708;50.872;5.306;2023-07-20T14:07:50;25.20;44.10
27188;DHT22;14708;50.872;5.306;2023-07-20T14:10:16;25.30;45.10
27188;DHT22;14708;50.872;5.306;2023-07-20T14:12:42;25.30;44.80
27188;DHT22;14708;50.872;5.306;2023-07-20T14:15:09;25.30;44.40
27188;DHT22;14708;50.872;5.306;2023-07-20T14:17:35;25.30;44.10
27188;DHT22;14708;50.872;5.306;2023-07-20T14:20:00;25.30;44.00
27188;DHT22;14708;50.872;5.306;2023-07-20T14:22:28;25.30;44.50
27188;DHT22;14708;50.872;5.306;2023-07-20T14:24:54;25.30;44.20
27188;DHT22;14708;50.872;5.306;2023-07-20T14:44:23;25.40;45.00
27188;DHT22;14708;50.872;5.306;2023-07-20T14:46:50;25.40;45.10
27188;DHT22;14708;50.872;5.306;2023-07-20T14:49:16;25.30;45.40
27188;DHT22;14708;50.872;5.306;2023-07-20T14:51:46;25.30;45.20
27188;DHT22;14708;50.872;5.306;2023-07-20T14:54:12;25.30;45.00
27188;DHT22;14708;50.872;5.306;2023-07-20T14:56:39;25.30;45.90
27188;DHT22;14708;50.872;5.306;2023-07-20T14:59:08;25.40;45.40
27188;DHT22;14708;50.872;5.306;2023-07-20T15:01:43;25.40;44.60
27188;DHT22;14708;50.872;5.306;2023-07-20T15:04:34;25.40;44.10
27188;DHT22;14708;50.872;5.306;2023-07-20T15:06:59;25.40;44.40
27188;DHT22;14708;50.872;5.306;2023-07-20T15:09:25;25.40;44.40
27188;DHT22;14708;50.872;5.306;2023-07-20T15:11:51;25.30;44.60
27188;DHT22;14708;50.872;5.306;2023-07-20T15:14:16;25.30;44.30
27188;DHT22;14708;50.872;5.306;2023-07-20T15:16:42;25.40;44.10
27188;DHT22;14708;50.872;5.306;2023-07-20T15:19:09;25.30;44.10
27188;DHT22;14708;50.872;5.306;2023-07-20T15:21:39;25.30;44.10
27188;DHT22;14708;50.872;5.306;2023-07-20T15:24:05;25.30;43.60
27188;DHT22;14708;50.872;5.306;2023-07-20T15:26:30;25.30;42.80
27188;DHT22;14708;50.872;5.306;2023-07-20T15:28:58;25.20;41.00
27188;DHT22;14708;50.872;5.306;2023-07-20T15:31:24;25.20;40.50
27188;DHT22;14708;50.872;5.306;2023-07-20T15:33:49;25.20;40.60
27188;DHT22;14708;50.872;5.306;2023-07-20T15:36:15;25.20;41.40
27188;DHT22;14708;50.872;5.306;2023-07-20T15:38:41;25.20;41.50
27188;DHT22;14708;50.872;5.306;2023-07-20T15:41:06;25.20;41.60
27188;DHT22;14708;50.872;5.306;2023-07-20T15:43:32;25.20;41.30
27188;DHT22;14708;50.872;5.306;2023-07-20T15:46:08;25.20;41.60
27188;DHT22;14708;50.872;5.306;2023-07-20T15:48:49;25.20;41.40
27188;DHT22;14708;50.872;5.306;2023-07-20T15:51:16;25.20;42.40
27188;DHT22;14708;50.872;5.306;2023-07-20T15:53:44;25.20;42.20
27188;DHT22;14708;50.872;5.306;2023-07-20T15:56:13;25.20;42.80
27188;DHT22;14708;50.872;5.306;2023-07-20T15:58:38;25.20;42.80
27188;DHT22;14708;50.872;5.306;2023-07-20T16:01:04;25.20;43.40
27188;DHT22;14708;50.872;5.306;2023-07-20T16:03:31;25.20;43.10
27188;DHT22;14708;50.872;5.306;2023-07-20T16:05:56;25.20;43.50
27188;DHT22;14708;50.872;5.306;2023-07-20T16:08:22;25.20;43.70
27188;DHT22;14708;50.872;5.306;2023-07-20T16:10:48;25.20;44.20
27188;DHT22;14708;50.872;5.306;2023-07-20T16:13:13;25.20;44.40
27188;DHT22;14708;50.872;5.306;2023-07-20T16:15:39;25.20;45.80
27188;DHT22;14708;50.872;5.306;2023-07-20T16:18:07;25.30;45.10